Weather at London City Airport

Public forecast

Using degrees Celsius for public forecast. Weather courtesy of forecast.io.

Current aviation weather report (METAR) for London City Airport

Retrieved 2021/09/23 14:20 UTC (0 seconds ago):

EGLC 231420Z AUTO 25010KT 9999 FEW027 SCT032 BKN040 20/15 Q1019

Aviation forecast (TAF) for London City Airport

Forecast is more than 12 hours old.

Retrieved 2018/10/15 21:30 UTC (3 years ago):

TAF EGLC 152119Z 1521/1621 CNL